White Sulphur Springs, West Virginia
Current Conditions -  °F | °C
As of 12:55 AM on Sunday 23 Nov 2014 (Local Time) from KLWB Reporting Station
Scattered Clouds Scattered Clouds  
Wind Chill: 31°   Ceiling: Unl
Heat Index: 31°   Visibility: 10mi
Dew Point: 22°   Wind: 0mph
Humidity: 71%   Direction: NA
Pressure: 30.22"   Gusts: NA
Location:  37.8°N, 80.3°W
Report Text: KLWB 230555Z AUTO 00000KT 10SM SCT085 M01/M05 A3022 RMK AO2 T10071054 10035 21010
Loading
Personal Weather Stations






























Interactive Weather Map New forecast layout! Learn more

10-Day Weather Forecast

Advertisements
Track Severe Weather on mobile